createdAt,value
2022-10-08T00:00:21.530Z,8.04
2022-10-08T00:02:48.502Z,8.08
2022-10-08T00:05:15.312Z,8.16
2022-10-08T00:07:44.334Z,8.11
2022-10-08T00:10:10.938Z,8.18
2022-10-08T00:12:37.424Z,8.20
2022-10-08T00:15:04.140Z,8.22
2022-10-08T00:17:30.606Z,8.33
2022-10-08T00:19:57.539Z,8.33
2022-10-08T00:22:25.047Z,8.34
2022-10-08T00:24:53.442Z,8.37
2022-10-08T00:27:23.798Z,8.34
2022-10-08T00:29:51.922Z,8.31
2022-10-08T00:32:19.942Z,8.35
2022-10-08T00:34:47.378Z,8.46
2022-10-08T00:37:15.274Z,8.55
2022-10-08T00:39:41.658Z,8.56
2022-10-08T00:42:08.091Z,8.60
2022-10-08T00:44:46.726Z,8.64
2022-10-08T00:47:33.472Z,8.55
2022-10-08T00:50:06.207Z,8.56
2022-10-08T00:52:35.402Z,8.55
2022-10-08T00:55:06.580Z,8.64
2022-10-08T00:57:36.479Z,8.61
2022-10-08T01:00:07.525Z,8.58
2022-10-08T01:02:33.994Z,8.56
2022-10-08T01:05:00.444Z,8.56
2022-10-08T01:07:29.422Z,8.50
2022-10-08T01:09:57.330Z,8.53
2022-10-08T01:12:42.541Z,8.58
2022-10-08T01:15:12.473Z,8.57
2022-10-08T01:17:41.913Z,8.55
2022-10-08T01:20:27.420Z,8.47
2022-10-08T01:22:53.816Z,8.48
2022-10-08T01:25:35.727Z,8.48
2022-10-08T01:28:03.799Z,8.46
2022-10-08T01:30:30.239Z,8.42
2022-10-08T01:32:58.496Z,8.41
2022-10-08T01:35:26.714Z,8.35
2022-10-08T01:37:56.170Z,8.35
2022-10-08T01:40:25.422Z,8.29
2022-10-08T01:42:51.826Z,8.28
2022-10-08T01:45:20.142Z,8.30
2022-10-08T01:47:46.634Z,8.34
2022-10-08T01:50:15.117Z,8.47
2022-10-08T01:52:48.421Z,8.54
2022-10-08T01:55:17.060Z,8.67
2022-10-08T01:57:43.491Z,8.83
2022-10-08T02:00:10.795Z,8.83
2022-10-08T02:02:37.272Z,8.89
2022-10-08T02:05:04.004Z,8.97
2022-10-08T02:07:31.756Z,8.98
2022-10-08T02:10:07.416Z,9.00
2022-10-08T02:12:33.904Z,9.09
2022-10-08T02:15:00.347Z,9.09
2022-10-08T02:17:26.750Z,9.12
2022-10-08T02:20:08.522Z,9.09
2022-10-08T02:22:36.619Z,9.01
2022-10-08T02:25:38.735Z,8.99
2022-10-08T02:28:14.104Z,8.94
2022-10-08T02:30:46.823Z,8.83
2022-10-08T02:33:17.211Z,8.80
2022-10-08T02:35:45.665Z,8.77
2022-10-08T02:38:13.828Z,8.70
2022-10-08T02:40:41.244Z,8.60
2022-10-08T02:43:10.187Z,8.62
2022-10-08T02:45:41.726Z,8.49
2022-10-08T02:48:15.080Z,8.50
2022-10-08T02:50:41.675Z,8.40
2022-10-08T02:53:08.118Z,8.32
2022-10-08T02:55:54.761Z,8.28
2022-10-08T02:58:21.216Z,8.34
2022-10-08T03:01:07.935Z,8.33
2022-10-08T03:03:38.271Z,8.29
2022-10-08T03:06:06.399Z,8.30
2022-10-08T03:08:32.886Z,8.32
2022-10-08T03:10:59.271Z,8.32
2022-10-08T03:13:26.014Z,8.33
2022-10-08T03:15:53.000Z,8.31
2022-10-08T03:18:19.436Z,8.36
2022-10-08T03:20:46.642Z,8.31
2022-10-08T03:23:13.623Z,8.25
2022-10-08T03:25:40.031Z,8.32
2022-10-08T03:28:06.521Z,8.34
2022-10-08T03:30:33.025Z,8.44
2022-10-08T03:32:59.494Z,8.52
2022-10-08T03:35:25.967Z,8.46
2022-10-08T03:37:53.494Z,8.45
2022-10-08T03:40:20.590Z,8.45
2022-10-08T03:42:47.185Z,8.47
2022-10-08T03:45:13.848Z,8.50
2022-10-08T03:47:40.276Z,8.62
2022-10-08T03:50:06.865Z,8.64
2022-10-08T03:52:33.280Z,8.65
2022-10-08T03:54:59.689Z,8.71
2022-10-08T03:57:26.085Z,8.77
2022-10-08T03:59:52.568Z,8.83
2022-10-08T04:02:19.030Z,8.94
2022-10-08T04:04:45.516Z,9.13
2022-10-08T04:07:11.907Z,9.27
2022-10-08T04:09:38.338Z,9.43
2022-10-08T04:12:04.765Z,9.57
2022-10-08T04:14:31.177Z,9.57
2022-10-08T04:16:57.627Z,9.65
2022-10-08T04:19:24.043Z,9.72
2022-10-08T04:21:50.436Z,9.75
2022-10-08T04:24:16.850Z,9.84
2022-10-08T04:26:43.268Z,9.88
2022-10-08T04:29:12.481Z,9.91
2022-10-08T04:31:39.587Z,9.89
2022-10-08T04:34:06.063Z,9.85
2022-10-08T04:36:32.476Z,9.77
2022-10-08T04:38:58.927Z,9.73
2022-10-08T04:41:26.138Z,9.64
2022-10-08T04:43:53.024Z,9.59
2022-10-08T04:46:20.156Z,9.56
2022-10-08T04:48:53.662Z,9.61
2022-10-08T04:51:20.453Z,9.47
2022-10-08T04:53:47.040Z,9.37
2022-10-08T04:56:17.659Z,9.26
2022-10-08T04:58:44.083Z,9.19
2022-10-08T05:01:11.745Z,9.12
2022-10-08T05:03:39.094Z,9.03
2022-10-08T05:06:06.099Z,8.97
2022-10-08T05:08:32.688Z,8.95
2022-10-08T05:10:59.091Z,8.99
2022-10-08T05:13:25.541Z,8.92
2022-10-08T05:15:52.060Z,8.87
2022-10-08T05:18:18.576Z,8.83
2022-10-08T05:20:45.056Z,8.88
2022-10-08T05:23:11.439Z,8.89
2022-10-08T05:25:37.875Z,8.78
2022-10-08T05:28:04.516Z,8.72
2022-10-08T05:30:30.997Z,8.71
2022-10-08T05:32:57.353Z,8.58
2022-10-08T05:35:23.732Z,8.59
2022-10-08T05:37:50.107Z,8.59
2022-10-08T05:40:16.588Z,8.62
2022-10-08T05:42:42.958Z,8.56
2022-10-08T05:45:09.613Z,8.53
2022-10-08T05:47:36.178Z,8.48
2022-10-08T05:50:02.658Z,8.53
2022-10-08T05:52:29.048Z,8.54
2022-10-08T05:54:55.491Z,8.55
2022-10-08T05:57:21.885Z,8.51
2022-10-08T05:59:48.277Z,8.51
2022-10-08T06:02:14.680Z,8.52
2022-10-08T06:04:41.129Z,8.49
2022-10-08T06:07:07.577Z,8.48
2022-10-08T06:09:34.009Z,8.50
2022-10-08T06:12:00.487Z,8.48
2022-10-08T06:14:27.722Z,8.45
2022-10-08T06:16:54.158Z,8.43
2022-10-08T06:19:20.850Z,8.44
2022-10-08T06:21:47.285Z,8.47
2022-10-08T06:24:13.932Z,8.50
2022-10-08T06:26:41.171Z,8.54
2022-10-08T06:29:10.111Z,8.53
2022-10-08T06:31:36.745Z,8.57
2022-10-08T06:34:04.639Z,8.64
2022-10-08T06:36:31.536Z,8.69
2022-10-08T06:38:58.811Z,8.71
2022-10-08T06:41:25.517Z,8.74
2022-10-08T06:43:52.013Z,8.73
2022-10-08T06:46:18.981Z,8.77
2022-10-08T06:48:45.639Z,8.85
2022-10-08T06:51:13.190Z,8.85
2022-10-08T06:53:39.792Z,8.86
2022-10-08T06:56:07.405Z,8.90
2022-10-08T06:58:37.191Z,8.94
2022-10-08T07:01:10.838Z,8.98
2022-10-08T07:03:37.295Z,9.02
2022-10-08T07:06:04.790Z,8.98
2022-10-08T07:08:31.391Z,9.04
2022-10-08T07:11:07.748Z,9.10
2022-10-08T07:13:34.510Z,9.19
2022-10-08T07:16:04.725Z,9.24
2022-10-08T07:18:31.671Z,9.24
2022-10-08T07:20:58.173Z,9.27
2022-10-08T07:23:24.674Z,9.29
2022-10-08T07:26:01.532Z,9.32
2022-10-08T07:28:29.558Z,9.37
2022-10-08T07:30:56.003Z,9.44
2022-10-08T07:33:22.527Z,9.56
2022-10-08T07:35:48.980Z,9.57
2022-10-08T07:38:18.533Z,9.62
2022-10-08T07:40:45.788Z,9.63
2022-10-08T07:43:13.300Z,9.59
2022-10-08T07:45:45.641Z,9.55
2022-10-08T07:48:12.094Z,9.51
2022-10-08T07:50:38.498Z,9.40
2022-10-08T07:53:05.597Z,9.37
2022-10-08T07:55:31.994Z,9.47
2022-10-08T07:57:58.445Z,9.50
2022-10-08T08:00:26.350Z,9.52
2022-10-08T08:02:52.942Z,9.56
2022-10-08T08:05:19.349Z,9.63
2022-10-08T08:07:48.567Z,9.76
2022-10-08T08:10:18.823Z,10.02
2022-10-08T08:12:45.616Z,10.04
2022-10-08T08:15:12.186Z,9.98
2022-10-08T08:17:39.775Z,9.86
2022-10-08T08:20:06.391Z,9.99
2022-10-08T08:22:32.804Z,10.17
2022-10-08T08:24:59.178Z,10.20
2022-10-08T08:27:25.587Z,10.35
2022-10-08T08:29:51.992Z,10.52
2022-10-08T08:32:18.440Z,10.57
2022-10-08T08:34:45.227Z,10.55
2022-10-08T08:37:11.656Z,10.48
2022-10-08T08:39:38.026Z,10.46
2022-10-08T08:42:08.474Z,10.47
2022-10-08T08:44:38.683Z,10.58
2022-10-08T08:47:17.851Z,10.72
2022-10-08T08:49:44.284Z,10.71
2022-10-08T08:52:12.602Z,10.83
2022-10-08T08:54:39.034Z,10.91
2022-10-08T08:57:26.394Z,11.04
2022-10-08T08:59:53.648Z,11.20
2022-10-08T09:02:23.203Z,11.43
2022-10-08T09:04:54.702Z,11.76
2022-10-08T09:07:22.394Z,11.91
2022-10-08T09:09:49.159Z,12.23
2022-10-08T09:12:27.456Z,12.54
2022-10-08T09:14:54.969Z,13.20
2022-10-08T09:17:25.083Z,14.02
2022-10-08T09:19:51.532Z,14.38
2022-10-08T09:22:22.804Z,14.66
2022-10-08T09:24:51.016Z,14.15
2022-10-08T09:27:17.562Z,13.51
2022-10-08T09:29:44.086Z,13.56
2022-10-08T09:32:20.507Z,13.34
2022-10-08T09:34:48.269Z,13.95
2022-10-08T09:37:20.808Z,15.79
2022-10-08T09:40:06.002Z,17.82
2022-10-08T09:42:32.564Z,19.00
2022-10-08T09:45:03.793Z,19.93
2022-10-08T09:47:31.010Z,20.40
2022-10-08T09:50:07.797Z,20.22
2022-10-08T09:52:34.673Z,21.14
2022-10-08T09:55:13.655Z,20.84
2022-10-08T09:57:43.999Z,21.87
2022-10-08T10:00:42.935Z,22.97
2022-10-08T10:03:16.625Z,23.42
2022-10-08T10:05:42.988Z,24.45
2022-10-08T10:08:29.344Z,25.02
2022-10-08T10:10:55.727Z,25.23
2022-10-08T10:13:31.654Z,25.46
2022-10-08T10:16:05.052Z,23.39
2022-10-08T10:18:34.116Z,22.87
2022-10-08T10:21:01.564Z,21.40
2022-10-08T10:23:35.279Z,19.30
2022-10-08T10:26:07.060Z,17.76
2022-10-08T10:28:33.892Z,16.65
2022-10-08T10:31:19.274Z,16.09
2022-10-08T10:33:54.890Z,15.91
2022-10-08T10:36:21.289Z,15.68
2022-10-08T10:39:13.950Z,15.60
2022-10-08T10:41:44.698Z,15.60
2022-10-08T10:44:11.625Z,16.03
2022-10-08T10:46:44.735Z,16.57
2022-10-08T10:49:31.392Z,16.56
2022-10-08T10:51:58.235Z,16.55
2022-10-08T10:54:32.070Z,18.64
2022-10-08T10:57:01.590Z,21.68
2022-10-08T10:59:48.038Z,23.34
2022-10-08T11:02:16.733Z,22.04
2022-10-08T11:04:46.391Z,20.05
2022-10-08T11:07:23.256Z,21.38
2022-10-08T11:10:03.062Z,23.88
2022-10-08T11:12:48.652Z,24.70
2022-10-08T11:15:28.621Z,26.20
2022-10-08T11:18:04.260Z,26.54
2022-10-08T11:20:38.051Z,27.57
2022-10-08T11:23:04.398Z,28.45
2022-10-08T11:26:15.374Z,28.60
2022-10-08T11:28:40.190Z,27.11
2022-10-08T11:31:06.609Z,27.64
2022-10-08T11:33:33.087Z,26.20
2022-10-08T11:36:18.531Z,25.61
2022-10-08T11:38:48.111Z,22.67
2022-10-08T11:41:14.478Z,23.09
2022-10-08T11:43:45.628Z,25.72
2022-10-08T11:46:13.011Z,27.55
2022-10-08T11:48:39.456Z,28.44
2022-10-08T11:51:32.430Z,28.19
2022-10-08T11:54:19.110Z,27.97
2022-10-08T11:56:46.888Z,29.29
2022-10-08T11:59:25.440Z,29.71
2022-10-08T12:01:55.657Z,29.49
2022-10-08T12:04:23.400Z,30.25
2022-10-08T12:06:59.763Z,31.18
2022-10-08T12:09:26.215Z,30.81
2022-10-08T12:11:53.288Z,30.99
2022-10-08T12:14:19.666Z,30.06
2022-10-08T12:16:49.230Z,28.65
2022-10-08T12:19:31.075Z,26.99
2022-10-08T12:21:57.723Z,28.40
2022-10-08T12:24:39.415Z,28.45
2022-10-08T12:27:18.162Z,25.95
2022-10-08T12:29:54.991Z,22.20
2022-10-08T12:32:22.914Z,20.63
2022-10-08T12:34:49.320Z,21.67
2022-10-08T12:37:34.615Z,21.18
2022-10-08T12:40:09.603Z,19.85
2022-10-08T12:42:37.102Z,19.03
2022-10-08T12:45:06.232Z,18.55
2022-10-08T12:47:35.764Z,18.75
2022-10-08T12:50:02.164Z,20.47
2022-10-08T12:52:32.327Z,22.31
2022-10-08T12:54:58.781Z,25.39
2022-10-08T12:57:34.479Z,27.08
2022-10-08T13:00:01.130Z,28.43
2022-10-08T13:02:37.797Z,30.08
2022-10-08T13:05:22.715Z,30.40
2022-10-08T13:07:49.744Z,27.82
2022-10-08T13:10:18.333Z,25.18
2022-10-08T13:12:57.957Z,23.06
2022-10-08T13:15:26.077Z,20.76
2022-10-08T13:17:53.824Z,19.21
2022-10-08T13:20:21.685Z,18.46
2022-10-08T13:22:48.264Z,18.55
2022-10-08T13:25:33.333Z,18.80
2022-10-08T13:28:12.150Z,18.97
2022-10-08T13:30:38.666Z,18.61
2022-10-08T13:33:25.356Z,18.13
2022-10-08T13:36:01.337Z,17.50
2022-10-08T13:38:29.523Z,17.07
2022-10-08T13:40:58.719Z,17.24
2022-10-08T13:43:25.626Z,17.48
2022-10-08T13:45:52.079Z,17.03
2022-10-08T13:48:18.502Z,16.82
2022-10-08T13:50:45.406Z,16.55
2022-10-08T13:53:12.215Z,16.23
2022-10-08T13:55:38.689Z,15.82
2022-10-08T13:58:06.071Z,15.29
2022-10-08T14:00:33.782Z,14.95
2022-10-08T14:03:00.896Z,14.65
2022-10-08T14:05:27.678Z,14.45
2022-10-08T14:07:58.367Z,14.56
2022-10-08T14:10:24.826Z,14.85
2022-10-08T14:12:51.336Z,16.24
2022-10-08T14:15:17.802Z,18.23
2022-10-08T14:17:44.584Z,18.02
2022-10-08T14:20:11.223Z,16.90
2022-10-08T14:22:40.627Z,16.20
2022-10-08T14:25:15.817Z,15.73
2022-10-08T14:27:42.227Z,15.50
2022-10-08T14:30:09.585Z,15.19
2022-10-08T14:32:36.007Z,15.03
2022-10-08T14:35:02.403Z,15.19
2022-10-08T14:37:28.802Z,15.50
2022-10-08T14:39:55.223Z,15.98
2022-10-08T14:42:21.674Z,16.13
2022-10-08T14:44:48.149Z,16.18
2022-10-08T14:47:14.991Z,16.05
2022-10-08T14:49:41.838Z,15.82
2022-10-08T14:52:08.256Z,15.65
2022-10-08T14:54:34.650Z,15.45
2022-10-08T14:57:01.139Z,15.23
2022-10-08T14:59:27.561Z,14.93
2022-10-08T15:01:54.009Z,14.66
2022-10-08T15:04:20.538Z,14.45
2022-10-08T15:06:47.006Z,14.22
2022-10-08T15:09:13.475Z,14.09
2022-10-08T15:11:39.906Z,14.06
2022-10-08T15:14:06.462Z,14.13
2022-10-08T15:16:32.892Z,14.29
2022-10-08T15:18:59.342Z,14.34
2022-10-08T15:21:25.797Z,14.40
2022-10-08T15:23:54.461Z,14.42
2022-10-08T15:26:21.240Z,14.34
2022-10-08T15:28:51.019Z,14.31
2022-10-08T15:31:18.131Z,14.38
2022-10-08T15:33:48.727Z,14.49
2022-10-08T15:36:18.850Z,14.43
2022-10-08T15:38:45.604Z,14.12
2022-10-08T15:41:12.044Z,13.96
2022-10-08T15:43:38.481Z,13.85
2022-10-08T15:46:09.437Z,13.79
2022-10-08T15:48:35.886Z,13.68
2022-10-08T15:51:02.366Z,13.61
2022-10-08T15:53:32.523Z,13.49
2022-10-08T15:55:58.883Z,13.36
2022-10-08T15:58:48.962Z,13.31
2022-10-08T16:01:13.014Z,13.24
2022-10-08T16:03:40.532Z,13.20
2022-10-08T16:06:07.258Z,13.12
2022-10-08T16:08:33.958Z,13.02
2022-10-08T16:11:12.599Z,13.03
2022-10-08T16:13:39.118Z,12.99
2022-10-08T16:16:06.322Z,12.91
2022-10-08T16:18:32.755Z,12.78
2022-10-08T16:21:02.959Z,12.60
2022-10-08T16:23:32.934Z,12.42
2022-10-08T16:25:59.907Z,12.24
2022-10-08T16:28:26.457Z,12.10
2022-10-08T16:30:53.005Z,12.01
2022-10-08T16:33:19.439Z,11.92
2022-10-08T16:35:45.874Z,11.87
2022-10-08T16:38:12.281Z,11.78
2022-10-08T16:40:38.758Z,11.67
2022-10-08T16:43:05.172Z,11.50
2022-10-08T16:45:35.124Z,11.40
2022-10-08T16:48:01.708Z,11.30
2022-10-08T16:50:28.288Z,11.19
2022-10-08T16:52:54.656Z,11.10
2022-10-08T16:55:21.046Z,10.99
2022-10-08T16:57:51.463Z,10.88
2022-10-08T17:00:18.780Z,10.79
2022-10-08T17:02:45.854Z,10.70
2022-10-08T17:05:12.573Z,10.55
2022-10-08T17:07:39.013Z,10.45
2022-10-08T17:10:05.913Z,10.24
2022-10-08T17:12:32.542Z,10.08
2022-10-08T17:14:58.991Z,9.88
2022-10-08T17:17:25.351Z,9.74
2022-10-08T17:19:51.778Z,9.58
2022-10-08T17:22:18.188Z,9.44
2022-10-08T17:24:44.640Z,9.32
2022-10-08T17:27:13.342Z,9.19
2022-10-08T17:29:39.771Z,9.01
2022-10-08T17:32:06.384Z,8.91
2022-10-08T17:34:33.150Z,8.82
2022-10-08T17:36:59.787Z,8.63
2022-10-08T17:39:26.431Z,8.54
2022-10-08T17:41:52.860Z,8.44
2022-10-08T17:44:19.358Z,8.46
2022-10-08T17:46:47.358Z,8.42
2022-10-08T17:49:14.491Z,8.32
2022-10-08T17:51:40.926Z,8.22
2022-10-08T17:54:08.330Z,8.12
2022-10-08T17:56:34.822Z,8.07
2022-10-08T17:59:01.332Z,8.04
2022-10-08T18:01:28.698Z,8.04
2022-10-08T18:03:56.193Z,8.03
2022-10-08T18:06:23.003Z,7.97
2022-10-08T18:08:49.607Z,7.93
2022-10-08T18:11:16.459Z,7.89
2022-10-08T18:13:42.927Z,7.89
2022-10-08T18:16:11.558Z,7.86
2022-10-08T18:18:37.998Z,7.88
2022-10-08T18:21:04.822Z,7.89
2022-10-08T18:23:31.897Z,7.94
2022-10-08T18:26:11.618Z,7.90
2022-10-08T18:28:38.186Z,7.83
2022-10-08T18:31:08.365Z,7.71
2022-10-08T18:33:35.611Z,7.63
2022-10-08T18:36:09.183Z,7.55
2022-10-08T18:38:35.592Z,7.49
2022-10-08T18:41:09.622Z,7.43
2022-10-08T18:43:36.025Z,7.43
2022-10-08T18:46:02.947Z,7.38
2022-10-08T18:48:30.720Z,7.33
2022-10-08T18:51:01.780Z,7.26
2022-10-08T18:53:29.998Z,7.23
2022-10-08T18:55:56.397Z,7.19
2022-10-08T18:58:22.814Z,7.11
2022-10-08T19:00:49.218Z,7.07
2022-10-08T19:03:15.683Z,7.04
2022-10-08T19:05:42.116Z,6.97
2022-10-08T19:08:08.636Z,6.85
2022-10-08T19:10:35.049Z,6.75
2022-10-08T19:13:01.659Z,6.72
2022-10-08T19:15:28.090Z,6.70
2022-10-08T19:17:54.490Z,6.62
2022-10-08T19:20:20.920Z,6.58
2022-10-08T19:22:47.521Z,6.53
2022-10-08T19:25:14.284Z,6.48
2022-10-08T19:27:40.675Z,6.48
2022-10-08T19:30:07.268Z,6.49
2022-10-08T19:32:33.669Z,6.46
2022-10-08T19:35:00.127Z,6.47
2022-10-08T19:37:26.551Z,6.49
2022-10-08T19:39:52.997Z,6.51
2022-10-08T19:42:19.364Z,6.53
2022-10-08T19:44:45.803Z,6.50
2022-10-08T19:47:12.211Z,6.42
2022-10-08T19:49:38.624Z,6.35
2022-10-08T19:52:05.053Z,6.19
2022-10-08T19:54:31.459Z,6.10
2022-10-08T19:56:57.868Z,5.91
2022-10-08T19:59:24.302Z,5.87
2022-10-08T20:01:50.781Z,5.85
2022-10-08T20:04:17.397Z,5.91
2022-10-08T20:06:43.975Z,6.01
2022-10-08T20:09:11.994Z,6.09
2022-10-08T20:11:38.801Z,5.95
2022-10-08T20:14:05.256Z,5.85
2022-10-08T20:16:32.668Z,5.78
2022-10-08T20:19:00.255Z,5.71
2022-10-08T20:21:27.713Z,5.72
2022-10-08T20:23:54.168Z,5.70
2022-10-08T20:26:21.589Z,5.69
2022-10-08T20:28:52.372Z,5.68
2022-10-08T20:31:20.129Z,5.69
2022-10-08T20:33:46.717Z,5.62
2022-10-08T20:36:14.275Z,5.53
2022-10-08T20:38:40.890Z,5.45
2022-10-08T20:41:07.696Z,5.38
2022-10-08T20:43:35.062Z,5.30
2022-10-08T20:46:06.670Z,5.28
2022-10-08T20:48:33.872Z,5.28
2022-10-08T20:51:07.291Z,5.28
2022-10-08T20:53:33.718Z,5.20
2022-10-08T20:56:07.033Z,5.13
2022-10-08T20:58:33.602Z,5.05
2022-10-08T21:01:04.427Z,5.00
2022-10-08T21:03:30.898Z,4.99
2022-10-08T21:05:57.349Z,4.99
2022-10-08T21:08:23.819Z,4.96
2022-10-08T21:10:50.260Z,4.98
2022-10-08T21:13:16.666Z,5.03
2022-10-08T21:15:43.148Z,4.97
2022-10-08T21:18:09.523Z,4.90
2022-10-08T21:20:36.780Z,4.91
2022-10-08T21:23:03.623Z,4.89
2022-10-08T21:25:30.080Z,4.99
2022-10-08T21:27:56.483Z,4.97
2022-10-08T21:30:22.849Z,4.93
2022-10-08T21:32:49.754Z,4.85
2022-10-08T21:35:16.379Z,4.87
2022-10-08T21:37:42.806Z,4.82
2022-10-08T21:40:09.376Z,4.69
2022-10-08T21:42:35.839Z,4.65
2022-10-08T21:45:02.255Z,4.60
2022-10-08T21:47:28.854Z,4.54
2022-10-08T21:49:55.454Z,4.52
2022-10-08T21:52:21.899Z,4.56
2022-10-08T21:54:48.319Z,4.53
2022-10-08T21:57:16.439Z,4.55
2022-10-08T21:59:43.042Z,4.49
2022-10-08T22:02:09.526Z,4.58
2022-10-08T22:04:36.031Z,4.57
2022-10-08T22:07:04.624Z,4.49
2022-10-08T22:09:32.274Z,4.38
2022-10-08T22:11:58.966Z,4.28
2022-10-08T22:14:25.523Z,4.20
2022-10-08T22:16:51.990Z,4.18
2022-10-08T22:19:18.552Z,4.18
2022-10-08T22:21:45.119Z,4.29
2022-10-08T22:24:11.601Z,4.23
2022-10-08T22:26:39.222Z,4.09
2022-10-08T22:29:05.834Z,4.15
2022-10-08T22:31:32.371Z,4.08
2022-10-08T22:33:59.169Z,4.02
2022-10-08T22:36:26.479Z,3.97
2022-10-08T22:38:53.170Z,3.99
2022-10-08T22:41:20.602Z,4.01
2022-10-08T22:43:47.118Z,3.98
2022-10-08T22:46:14.887Z,3.94
2022-10-08T22:48:41.505Z,3.96
2022-10-08T22:51:08.926Z,3.91
2022-10-08T22:53:35.351Z,3.84
2022-10-08T22:56:05.543Z,3.70
2022-10-08T22:58:32.308Z,3.62
2022-10-08T23:01:02.770Z,3.60
2022-10-08T23:03:29.339Z,3.61
2022-10-08T23:06:06.264Z,3.65
2022-10-08T23:08:32.968Z,3.67
2022-10-08T23:10:59.398Z,3.67
2022-10-08T23:13:25.847Z,3.65
2022-10-08T23:15:59.126Z,3.63
2022-10-08T23:18:25.730Z,3.63
2022-10-08T23:20:52.099Z,3.58
2022-10-08T23:23:18.502Z,3.55
2022-10-08T23:25:58.721Z,3.53
2022-10-08T23:28:25.353Z,3.46
2022-10-08T23:30:51.819Z,3.47
2022-10-08T23:33:18.383Z,3.40
2022-10-08T23:35:44.856Z,3.37
2022-10-08T23:38:11.306Z,3.30
2022-10-08T23:40:37.750Z,3.23
2022-10-08T23:43:04.218Z,3.17
2022-10-08T23:45:30.739Z,3.15
2022-10-08T23:47:57.151Z,3.03
2022-10-08T23:50:23.554Z,3.01
2022-10-08T23:52:50.422Z,3.01
2022-10-08T23:55:17.089Z,3.01
2022-10-08T23:57:43.473Z,3.03
